sensor_id;sensor_type;location;lat;lon;timestamp;pressure;altitude;pressure_sealevel;temperature;humidity
55610;BME280;41486;52.502;13.486;2022-11-15T00:00:33;100966.81;;;4.72;100.00
55610;BME280;41486;52.502;13.486;2022-11-15T00:03:31;100958.63;;;4.61;100.00
55610;BME280;41486;52.502;13.486;2022-11-15T00:06:20;100962.00;;;4.63;100.00
55610;BME280;41486;52.502;13.486;2022-11-15T00:09:08;100963.13;;;4.57;100.00
55610;BME280;41486;52.502;13.486;2022-11-15T00:11:56;100962.19;;;4.60;100.00
55610;BME280;41486;52.502;13.486;2022-11-15T00:14:42;100966.09;;;4.69;100.00
55610;BME280;41486;52.502;13.486;2022-11-15T00:17:29;100960.47;;;4.59;100.00
55610;BME280;41486;52.502;13.486;2022-11-15T00:20:16;100959.56;;;4.60;100.00
55610;BME280;41486;52.502;13.486;2022-11-15T00:23:03;100946.53;;;4.60;100.00
55610;BME280;41486;52.502;13.486;2022-11-15T00:25:55;100938.13;;;4.72;100.00
55610;BME280;41486;52.502;13.486;2022-11-15T00:28:47;100938.47;;;4.65;100.00
55610;BME280;41486;52.502;13.486;2022-11-15T00:31:34;100939.91;;;4.72;100.00
55610;BME280;41486;52.502;13.486;2022-11-15T00:34:20;100926.94;;;4.51;100.00
55610;BME280;41486;52.502;13.486;2022-11-15T00:37:07;100927.69;;;4.72;100.00
55610;BME280;41486;52.502;13.486;2022-11-15T00:39:53;100933.00;;;4.71;100.00
55610;BME280;41486;52.502;13.486;2022-11-15T00:42:40;100923.09;;;4.60;100.00
55610;BME280;41486;52.502;13.486;2022-11-15T00:45:28;100921.44;;;4.77;100.00
55610;BME280;41486;52.502;13.486;2022-11-15T00:48:14;100916.91;;;4.61;100.00
55610;BME280;41486;52.502;13.486;2022-11-15T00:51:00;100926.31;;;4.46;100.00
55610;BME280;41486;52.502;13.486;2022-11-15T00:53:47;100923.84;;;4.43;100.00
55610;BME280;41486;52.502;13.486;2022-11-15T00:56:33;100918.78;;;4.40;100.00
55610;BME280;41486;52.502;13.486;2022-11-15T00:59:20;100907.28;;;4.44;100.00
55610;BME280;41486;52.502;13.486;2022-11-15T01:02:08;100909.59;;;4.50;100.00
55610;BME280;41486;52.502;13.486;2022-11-15T01:04:54;100911.88;;;4.39;100.00
55610;BME280;41486;52.502;13.486;2022-11-15T01:07:41;100911.22;;;4.53;100.00
55610;BME280;41486;52.502;13.486;2022-11-15T01:10:28;100906.88;;;4.15;100.00
55610;BME280;41486;52.502;13.486;2022-11-15T01:13:14;100907.44;;;4.22;100.00
55610;BME280;41486;52.502;13.486;2022-11-15T01:16:06;100913.84;;;4.15;100.00
55610;BME280;41486;52.502;13.486;2022-11-15T01:18:54;100909.91;;;4.06;100.00
55610;BME280;41486;52.502;13.486;2022-11-15T01:21:41;100901.59;;;4.17;100.00
55610;BME280;41486;52.502;13.486;2022-11-15T01:24:27;100896.38;;;4.17;100.00
55610;BME280;41486;52.502;13.486;2022-11-15T01:27:14;100894.34;;;4.04;100.00
55610;BME280;41486;52.502;13.486;2022-11-15T01:30:00;100893.28;;;4.08;100.00
55610;BME280;41486;52.502;13.486;2022-11-15T01:32:47;100886.94;;;3.95;100.00
55610;BME280;41486;52.502;13.486;2022-11-15T01:35:38;100880.53;;;4.02;100.00
55610;BME280;41486;52.502;13.486;2022-11-15T01:38:25;100884.97;;;4.00;100.00
55610;BME280;41486;52.502;13.486;2022-11-15T01:41:20;100875.88;;;4.09;100.00
55610;BME280;41486;52.502;13.486;2022-11-15T01:47:14;100866.53;;;4.05;100.00
55610;BME280;41486;52.502;13.486;2022-11-15T01:50:05;100863.50;;;3.95;100.00
55610;BME280;41486;52.502;13.486;2022-11-15T01:52:54;100864.50;;;4.12;100.00
55610;BME280;41486;52.502;13.486;2022-11-15T01:55:40;100853.09;;;3.95;100.00
55610;BME280;41486;52.502;13.486;2022-11-15T01:58:29;100850.22;;;4.01;100.00
55610;BME280;41486;52.502;13.486;2022-11-15T02:01:16;100843.19;;;4.03;100.00
55610;BME280;41486;52.502;13.486;2022-11-15T02:04:07;100851.69;;;4.07;100.00
55610;BME280;41486;52.502;13.486;2022-11-15T02:06:56;100845.63;;;4.06;100.00
55610;BME280;41486;52.502;13.486;2022-11-15T02:09:45;100841.13;;;3.91;100.00
55610;BME280;41486;52.502;13.486;2022-11-15T02:12:32;100842.31;;;3.84;100.00
55610;BME280;41486;52.502;13.486;2022-11-15T02:15:19;100836.00;;;4.08;100.00
55610;BME280;41486;52.502;13.486;2022-11-15T02:18:12;100842.53;;;4.17;100.00
55610;BME280;41486;52.502;13.486;2022-11-15T02:21:04;100832.34;;;4.13;100.00
55610;BME280;41486;52.502;13.486;2022-11-15T02:27:46;100834.28;;;4.07;100.00
55610;BME280;41486;52.502;13.486;2022-11-15T02:30:41;100832.25;;;3.95;100.00
55610;BME280;41486;52.502;13.486;2022-11-15T02:33:35;100841.00;;;3.94;100.00
55610;BME280;41486;52.502;13.486;2022-11-15T02:36:34;100835.06;;;3.90;100.00
55610;BME280;41486;52.502;13.486;2022-11-15T02:39:27;100839.78;;;4.01;100.00
55610;BME280;41486;52.502;13.486;2022-11-15T02:42:18;100838.50;;;3.91;100.00
55610;BME280;41486;52.502;13.486;2022-11-15T02:45:27;100839.06;;;3.78;100.00
55610;BME280;41486;52.502;13.486;2022-11-15T02:48:17;100827.31;;;3.70;100.00
55610;BME280;41486;52.502;13.486;2022-11-15T02:51:04;100820.91;;;3.77;100.00
55610;BME280;41486;52.502;13.486;2022-11-15T02:53:52;100824.16;;;3.82;100.00
55610;BME280;41486;52.502;13.486;2022-11-15T02:56:38;100821.47;;;3.84;100.00
55610;BME280;41486;52.502;13.486;2022-11-15T02:59:43;100821.69;;;3.79;100.00
55610;BME280;41486;52.502;13.486;2022-11-15T03:02:42;100820.84;;;3.78;100.00
55610;BME280;41486;52.502;13.486;2022-11-15T03:05:35;100820.69;;;3.82;100.00
55610;BME280;41486;52.502;13.486;2022-11-15T03:08:29;100817.34;;;3.79;100.00
55610;BME280;41486;52.502;13.486;2022-11-15T03:11:18;100812.47;;;3.72;100.00
55610;BME280;41486;52.502;13.486;2022-11-15T03:14:12;100808.75;;;3.77;100.00
55610;BME280;41486;52.502;13.486;2022-11-15T03:17:06;100819.16;;;3.58;100.00
55610;BME280;41486;52.502;13.486;2022-11-15T03:19:59;100814.25;;;3.51;100.00
55610;BME280;41486;52.502;13.486;2022-11-15T03:22:49;100815.38;;;3.45;100.00
55610;BME280;41486;52.502;13.486;2022-11-15T03:25:40;100817.41;;;3.38;100.00
55610;BME280;41486;52.502;13.486;2022-11-15T03:28:32;100816.16;;;3.47;100.00
55610;BME280;41486;52.502;13.486;2022-11-15T03:31:21;100812.66;;;3.48;100.00
55610;BME280;41486;52.502;13.486;2022-11-15T03:34:37;100816.25;;;3.45;100.00
55610;BME280;41486;52.502;13.486;2022-11-15T03:37:31;100805.44;;;3.55;100.00
55610;BME280;41486;52.502;13.486;2022-11-15T03:40:25;100806.53;;;3.49;100.00
55610;BME280;41486;52.502;13.486;2022-11-15T03:43:20;100804.41;;;3.38;100.00
55610;BME280;41486;52.502;13.486;2022-11-15T03:46:13;100814.03;;;3.36;100.00
55610;BME280;41486;52.502;13.486;2022-11-15T03:49:06;100810.53;;;3.37;100.00
55610;BME280;41486;52.502;13.486;2022-11-15T03:51:56;100805.41;;;3.36;100.00
55610;BME280;41486;52.502;13.486;2022-11-15T03:54:50;100801.72;;;3.40;100.00
55610;BME280;41486;52.502;13.486;2022-11-15T03:57:39;100807.13;;;3.35;100.00
55610;BME280;41486;52.502;13.486;2022-11-15T04:00:26;100805.50;;;3.33;100.00
55610;BME280;41486;52.502;13.486;2022-11-15T04:03:13;100800.44;;;3.29;100.00
55610;BME280;41486;52.502;13.486;2022-11-15T04:06:00;100802.09;;;3.32;100.00
55610;BME280;41486;52.502;13.486;2022-11-15T04:08:46;100799.47;;;3.32;100.00
55610;BME280;41486;52.502;13.486;2022-11-15T04:11:32;100802.72;;;3.37;100.00
55610;BME280;41486;52.502;13.486;2022-11-15T04:14:20;100801.34;;;3.49;100.00
55610;BME280;41486;52.502;13.486;2022-11-15T04:17:07;100797.75;;;3.52;100.00
55610;BME280;41486;52.502;13.486;2022-11-15T04:19:53;100788.59;;;3.43;100.00
55610;BME280;41486;52.502;13.486;2022-11-15T04:23:00;100787.97;;;3.57;100.00
55610;BME280;41486;52.502;13.486;2022-11-15T04:26:06;100788.94;;;3.35;100.00
55610;BME280;41486;52.502;13.486;2022-11-15T04:28:55;100785.81;;;3.27;100.00
55610;BME280;41486;52.502;13.486;2022-11-15T04:32:00;100787.09;;;3.37;100.00
55610;BME280;41486;52.502;13.486;2022-11-15T04:34:47;100792.19;;;3.40;100.00
55610;BME280;41486;52.502;13.486;2022-11-15T04:37:34;100790.75;;;3.33;100.00
55610;BME280;41486;52.502;13.486;2022-11-15T04:40:20;100782.03;;;3.34;100.00
55610;BME280;41486;52.502;13.486;2022-11-15T04:43:07;100785.41;;;3.36;100.00
55610;BME280;41486;52.502;13.486;2022-11-15T04:45:54;100787.94;;;3.38;100.00
55610;BME280;41486;52.502;13.486;2022-11-15T04:48:42;100778.44;;;3.37;100.00
55610;BME280;41486;52.502;13.486;2022-11-15T04:51:28;100777.41;;;3.41;100.00
55610;BME280;41486;52.502;13.486;2022-11-15T04:54:15;100776.78;;;3.36;100.00
55610;BME280;41486;52.502;13.486;2022-11-15T04:57:02;100772.09;;;3.44;100.00
55610;BME280;41486;52.502;13.486;2022-11-15T04:59:48;100772.13;;;3.42;100.00
55610;BME280;41486;52.502;13.486;2022-11-15T05:02:35;100766.72;;;3.47;100.00
55610;BME280;41486;52.502;13.486;2022-11-15T05:05:40;100767.91;;;3.40;100.00
55610;BME280;41486;52.502;13.486;2022-11-15T05:08:27;100772.69;;;3.30;100.00
55610;BME280;41486;52.502;13.486;2022-11-15T05:11:13;100768.00;;;3.38;100.00
55610;BME280;41486;52.502;13.486;2022-11-15T05:14:00;100771.22;;;3.43;100.00
55610;BME280;41486;52.502;13.486;2022-11-15T05:16:47;100778.00;;;3.47;100.00
55610;BME280;41486;52.502;13.486;2022-11-15T05:19:33;100769.81;;;3.36;100.00
55610;BME280;41486;52.502;13.486;2022-11-15T05:22:21;100767.84;;;3.41;100.00
55610;BME280;41486;52.502;13.486;2022-11-15T05:25:08;100772.91;;;3.44;100.00
55610;BME280;41486;52.502;13.486;2022-11-15T05:27:54;100766.81;;;3.45;100.00
55610;BME280;41486;52.502;13.486;2022-11-15T05:30:41;100772.63;;;3.51;100.00
55610;BME280;41486;52.502;13.486;2022-11-15T05:33:31;100768.41;;;3.48;100.00
55610;BME280;41486;52.502;13.486;2022-11-15T05:36:24;100765.31;;;3.40;100.00
55610;BME280;41486;52.502;13.486;2022-11-15T05:39:13;100771.16;;;3.45;100.00
55610;BME280;41486;52.502;13.486;2022-11-15T05:42:02;100771.31;;;3.42;100.00
55610;BME280;41486;52.502;13.486;2022-11-15T05:44:51;100775.00;;;3.36;100.00
55610;BME280;41486;52.502;13.486;2022-11-15T05:47:39;100772.22;;;3.41;100.00
55610;BME280;41486;52.502;13.486;2022-11-15T05:50:28;100779.19;;;3.40;100.00
55610;BME280;41486;52.502;13.486;2022-11-15T05:53:18;100774.94;;;3.38;100.00
55610;BME280;41486;52.502;13.486;2022-11-15T05:56:08;100778.59;;;3.34;100.00
55610;BME280;41486;52.502;13.486;2022-11-15T05:58:56;100778.91;;;3.46;100.00
55610;BME280;41486;52.502;13.486;2022-11-15T06:01:44;100785.28;;;3.39;100.00
55610;BME280;41486;52.502;13.486;2022-11-15T06:04:31;100773.41;;;3.34;100.00
55610;BME280;41486;52.502;13.486;2022-11-15T06:07:17;100783.94;;;3.30;100.00
55610;BME280;41486;52.502;13.486;2022-11-15T06:10:05;100778.31;;;3.40;100.00
55610;BME280;41486;52.502;13.486;2022-11-15T06:12:57;100781.78;;;3.40;100.00
55610;BME280;41486;52.502;13.486;2022-11-15T06:15:44;100781.72;;;3.42;100.00
55610;BME280;41486;52.502;13.486;2022-11-15T06:18:31;100787.22;;;3.55;100.00
55610;BME280;41486;52.502;13.486;2022-11-15T06:21:19;100783.81;;;3.53;100.00
55610;BME280;41486;52.502;13.486;2022-11-15T06:24:06;100787.41;;;3.50;100.00
55610;BME280;41486;52.502;13.486;2022-11-15T06:26:53;100786.34;;;3.54;100.00
55610;BME280;41486;52.502;13.486;2022-11-15T06:29:43;100789.94;;;3.52;100.00
55610;BME280;41486;52.502;13.486;2022-11-15T06:32:29;100798.53;;;3.73;100.00
55610;BME280;41486;52.502;13.486;2022-11-15T06:35:16;100799.75;;;3.66;100.00
55610;BME280;41486;52.502;13.486;2022-11-15T06:38:05;100789.25;;;3.86;100.00
55610;BME280;41486;52.502;13.486;2022-11-15T06:40:52;100789.00;;;3.92;100.00
55610;BME280;41486;52.502;13.486;2022-11-15T06:43:39;100790.44;;;3.79;100.00
55610;BME280;41486;52.502;13.486;2022-11-15T06:46:28;100805.25;;;3.98;100.00
55610;BME280;41486;52.502;13.486;2022-11-15T06:49:14;100799.63;;;3.88;100.00
55610;BME280;41486;52.502;13.486;2022-11-15T06:52:01;100792.78;;;4.04;100.00
55610;BME280;41486;52.502;13.486;2022-11-15T06:54:48;100795.38;;;4.23;100.00
55610;BME280;41486;52.502;13.486;2022-11-15T06:57:35;100790.91;;;4.25;100.00
55610;BME280;41486;52.502;13.486;2022-11-15T07:00:22;100792.69;;;4.25;100.00
55610;BME280;41486;52.502;13.486;2022-11-15T07:03:10;100795.19;;;4.26;100.00
55610;BME280;41486;52.502;13.486;2022-11-15T07:05:57;100807.22;;;4.29;100.00
55610;BME280;41486;52.502;13.486;2022-11-15T07:08:51;100799.72;;;4.23;100.00
55610;BME280;41486;52.502;13.486;2022-11-15T07:11:38;100802.72;;;4.33;100.00
55610;BME280;41486;52.502;13.486;2022-11-15T07:14:28;100807.72;;;4.37;100.00
55610;BME280;41486;52.502;13.486;2022-11-15T07:17:14;100810.09;;;4.42;100.00
55610;BME280;41486;52.502;13.486;2022-11-15T07:20:03;100813.00;;;4.36;100.00
55610;BME280;41486;52.502;13.486;2022-11-15T07:22:50;100814.09;;;4.49;100.00
55610;BME280;41486;52.502;13.486;2022-11-15T07:25:36;100814.69;;;4.37;100.00
55610;BME280;41486;52.502;13.486;2022-11-15T07:28:23;100819.56;;;4.45;100.00
55610;BME280;41486;52.502;13.486;2022-11-15T07:31:10;100819.66;;;4.61;100.00
55610;BME280;41486;52.502;13.486;2022-11-15T07:34:00;100820.56;;;4.60;100.00
55610;BME280;41486;52.502;13.486;2022-11-15T07:36:47;100825.66;;;4.80;100.00
55610;BME280;41486;52.502;13.486;2022-11-15T07:39:34;100822.38;;;4.77;100.00
55610;BME280;41486;52.502;13.486;2022-11-15T07:42:20;100818.97;;;4.74;100.00
55610;BME280;41486;52.502;13.486;2022-11-15T07:45:25;100819.22;;;4.87;100.00
55610;BME280;41486;52.502;13.486;2022-11-15T07:48:12;100810.16;;;4.95;100.00
55610;BME280;41486;52.502;13.486;2022-11-15T07:50:59;100808.25;;;4.98;100.00
55610;BME280;41486;52.502;13.486;2022-11-15T07:53:47;100813.75;;;5.10;100.00
55610;BME280;41486;52.502;13.486;2022-11-15T07:56:33;100810.69;;;5.19;100.00
55610;BME280;41486;52.502;13.486;2022-11-15T07:59:20;100813.41;;;5.33;100.00
55610;BME280;41486;52.502;13.486;2022-11-15T08:02:08;100803.94;;;5.32;100.00
55610;BME280;41486;52.502;13.486;2022-11-15T08:04:55;100803.38;;;5.43;100.00
55610;BME280;41486;52.502;13.486;2022-11-15T08:07:44;100797.56;;;5.54;100.00
55610;BME280;41486;52.502;13.486;2022-11-15T08:10:38;100788.81;;;5.55;100.00
55610;BME280;41486;52.502;13.486;2022-11-15T08:13:25;100787.38;;;5.65;100.00
55610;BME280;41486;52.502;13.486;2022-11-15T08:16:11;100791.22;;;5.92;100.00
55610;BME280;41486;52.502;13.486;2022-11-15T08:19:01;100789.00;;;5.84;100.00
55610;BME280;41486;52.502;13.486;2022-11-15T08:21:47;100792.81;;;5.94;100.00
55610;BME280;41486;52.502;13.486;2022-11-15T08:24:34;100793.28;;;6.03;100.00
55610;BME280;41486;52.502;13.486;2022-11-15T08:27:22;100791.91;;;6.11;100.00
55610;BME280;41486;52.502;13.486;2022-11-15T08:30:09;100787.78;;;6.39;100.00
55610;BME280;41486;52.502;13.486;2022-11-15T08:32:57;100790.53;;;6.36;100.00
55610;BME280;41486;52.502;13.486;2022-11-15T08:35:44;100788.31;;;6.60;100.00
55610;BME280;41486;52.502;13.486;2022-11-15T08:38:30;100789.41;;;6.56;100.00
55610;BME280;41486;52.502;13.486;2022-11-15T08:41:24;100798.22;;;6.70;100.00
55610;BME280;41486;52.502;13.486;2022-11-15T08:44:17;100785.38;;;6.81;100.00
55610;BME280;41486;52.502;13.486;2022-11-15T08:47:03;100775.94;;;6.78;100.00
55610;BME280;41486;52.502;13.486;2022-11-15T08:49:51;100778.59;;;6.93;100.00
55610;BME280;41486;52.502;13.486;2022-11-15T08:52:42;100783.56;;;6.98;100.00
55610;BME280;41486;52.502;13.486;2022-11-15T08:55:29;100780.66;;;7.02;100.00
55610;BME280;41486;52.502;13.486;2022-11-15T08:58:15;100787.75;;;7.00;100.00
55610;BME280;41486;52.502;13.486;2022-11-15T09:01:04;100786.47;;;7.22;100.00
55610;BME280;41486;52.502;13.486;2022-11-15T09:03:51;100783.97;;;7.20;100.00
55610;BME280;41486;52.502;13.486;2022-11-15T09:06:37;100800.63;;;7.48;100.00
55610;BME280;41486;52.502;13.486;2022-11-15T09:09:27;100794.81;;;7.57;100.00
55610;BME280;41486;52.502;13.486;2022-11-15T09:12:14;100790.72;;;7.53;100.00
55610;BME280;41486;52.502;13.486;2022-11-15T09:15:00;100793.50;;;7.50;100.00
55610;BME280;41486;52.502;13.486;2022-11-15T09:17:51;100794.06;;;7.70;100.00
55610;BME280;41486;52.502;13.486;2022-11-15T09:20:37;100797.31;;;7.88;100.00
55610;BME280;41486;52.502;13.486;2022-11-15T09:23:24;100791.03;;;8.05;100.00
55610;BME280;41486;52.502;13.486;2022-11-15T09:26:11;100783.13;;;8.19;100.00
55610;BME280;41486;52.502;13.486;2022-11-15T09:28:58;100775.91;;;8.23;100.00
55610;BME280;41486;52.502;13.486;2022-11-15T09:31:46;100772.88;;;8.29;100.00
55610;BME280;41486;52.502;13.486;2022-11-15T09:34:35;100788.84;;;8.39;100.00
55610;BME280;41486;52.502;13.486;2022-11-15T09:37:24;100796.16;;;8.48;100.00
55610;BME280;41486;52.502;13.486;2022-11-15T09:40:13;100792.63;;;8.62;100.00
55610;BME280;41486;52.502;13.486;2022-11-15T09:43:15;100790.84;;;8.76;100.00
55610;BME280;41486;52.502;13.486;2022-11-15T09:46:10;100793.69;;;8.86;100.00
55610;BME280;41486;52.502;13.486;2022-11-15T09:49:16;100791.03;;;9.00;100.00
55610;BME280;41486;52.502;13.486;2022-11-15T09:51:59;100785.13;;;8.83;100.00
55610;BME280;41486;52.502;13.486;2022-11-15T09:54:32;100785.84;;;8.98;100.00
55610;BME280;41486;52.502;13.486;2022-11-15T09:57:27;100781.47;;;9.12;100.00
55610;BME280;41486;52.502;13.486;2022-11-15T10:00:08;100790.06;;;9.14;100.00
55610;BME280;41486;52.502;13.486;2022-11-15T10:03:12;100780.50;;;9.26;100.00
55610;BME280;41486;52.502;13.486;2022-11-15T10:05:43;100776.94;;;9.40;100.00
55610;BME280;41486;52.502;13.486;2022-11-15T10:08:28;100771.78;;;9.51;100.00
55610;BME280;41486;52.502;13.486;2022-11-15T10:11:02;100762.94;;;9.65;100.00
55610;BME280;41486;52.502;13.486;2022-11-15T10:13:53;100758.38;;;9.80;100.00
55610;BME280;41486;52.502;13.486;2022-11-15T10:16:49;100755.81;;;9.91;100.00
55610;BME280;41486;52.502;13.486;2022-11-15T10:19:26;100755.97;;;10.01;100.00
55610;BME280;41486;52.502;13.486;2022-11-15T10:22:03;100758.53;;;9.90;100.00
55610;BME280;41486;52.502;13.486;2022-11-15T10:24:44;100744.66;;;10.01;100.00
55610;BME280;41486;52.502;13.486;2022-11-15T10:27:16;100737.97;;;10.32;100.00
55610;BME280;41486;52.502;13.486;2022-11-15T10:29:46;100738.06;;;10.44;100.00
55610;BME280;41486;52.502;13.486;2022-11-15T10:32:16;100728.19;;;10.34;100.00
55610;BME280;41486;52.502;13.486;2022-11-15T10:34:47;100723.75;;;10.35;100.00
55610;BME280;41486;52.502;13.486;2022-11-15T10:37:27;100729.22;;;10.56;100.00
55610;BME280;41486;52.502;13.486;2022-11-15T10:40:15;100719.44;;;10.58;100.00
55610;BME280;41486;52.502;13.486;2022-11-15T10:42:44;100712.28;;;10.71;100.00
55610;BME280;41486;52.502;13.486;2022-11-15T10:45:23;100713.47;;;10.79;100.00
55610;BME280;41486;52.502;13.486;2022-11-15T10:47:51;100710.91;;;11.01;99.99
55610;BME280;41486;52.502;13.486;2022-11-15T10:50:28;100710.66;;;11.04;97.59
55610;BME280;41486;52.502;13.486;2022-11-15T10:52:58;100707.91;;;11.29;96.64
55610;BME280;41486;52.502;13.486;2022-11-15T10:55:35;100698.13;;;11.75;94.25
55610;BME280;41486;52.502;13.486;2022-11-15T10:58:05;100687.63;;;11.96;92.69
55610;BME280;41486;52.502;13.486;2022-11-15T11:00:46;100689.59;;;12.26;89.18
55610;BME280;41486;52.502;13.486;2022-11-15T11:03:37;100691.69;;;12.11;88.99
55610;BME280;41486;52.502;13.486;2022-11-15T11:06:09;100695.00;;;12.25;87.59
55610;BME280;41486;52.502;13.486;2022-11-15T11:08:39;100691.88;;;12.73;84.79
55610;BME280;41486;52.502;13.486;2022-11-15T11:11:12;100694.19;;;12.98;85.26
55610;BME280;41486;52.502;13.486;2022-11-15T11:13:40;100678.84;;;13.63;80.93
55610;BME280;41486;52.502;13.486;2022-11-15T11:16:23;100673.59;;;15.27;73.95
55610;BME280;41486;52.502;13.486;2022-11-15T11:19:02;100676.78;;;15.58;69.19
55610;BME280;41486;52.502;13.486;2022-11-15T11:21:42;100682.38;;;16.19;67.22
55610;BME280;41486;52.502;13.486;2022-11-15T11:24:17;100680.94;;;16.07;66.06
55610;BME280;41486;52.502;13.486;2022-11-15T11:27:07;100677.59;;;16.94;62.57
55610;BME280;41486;52.502;13.486;2022-11-15T11:29:50;100669.59;;;15.23;68.23
55610;BME280;41486;52.502;13.486;2022-11-15T11:32:26;100664.50;;;13.46;78.63
55610;BME280;41486;52.502;13.486;2022-11-15T11:35:08;100664.69;;;13.23;81.11
55610;BME280;41486;52.502;13.486;2022-11-15T11:37:45;100660.19;;;13.14;82.93
55610;BME280;41486;52.502;13.486;2022-11-15T11:40:24;100661.00;;;12.74;84.27
55610;BME280;41486;52.502;13.486;2022-11-15T11:43:02;100658.88;;;12.89;83.48
55610;BME280;41486;52.502;13.486;2022-11-15T11:45:53;100665.28;;;12.96;83.87
55610;BME280;41486;52.502;13.486;2022-11-15T11:48:40;100659.16;;;12.96;83.62
55610;BME280;41486;52.502;13.486;2022-11-15T11:51:12;100659.81;;;12.57;85.44
55610;BME280;41486;52.502;13.486;2022-11-15T11:53:45;100659.59;;;13.01;84.93
55610;BME280;41486;52.502;13.486;2022-11-15T11:56:22;100657.81;;;13.11;84.34
55610;BME280;41486;52.502;13.486;2022-11-15T11:58:53;100654.34;;;13.41;82.47
55610;BME280;41486;52.502;13.486;2022-11-15T12:01:24;100660.72;;;13.39;80.98
55610;BME280;41486;52.502;13.486;2022-11-15T12:03:57;100659.41;;;13.84;80.33
55610;BME280;41486;52.502;13.486;2022-11-15T12:06:31;100651.47;;;13.84;80.57
55610;BME280;41486;52.502;13.486;2022-11-15T12:09:03;100646.59;;;13.79;80.49
55610;BME280;41486;52.502;13.486;2022-11-15T12:11:47;100642.00;;;14.20;77.92
55610;BME280;41486;52.502;13.486;2022-11-15T12:14:25;100640.72;;;15.66;70.21
55610;BME280;41486;52.502;13.486;2022-11-15T12:16:55;100641.88;;;16.96;64.72
55610;BME280;41486;52.502;13.486;2022-11-15T12:19:25;100635.38;;;17.33;62.37
55610;BME280;41486;52.502;13.486;2022-11-15T12:21:58;100632.28;;;17.88;60.88
55610;BME280;41486;52.502;13.486;2022-11-15T12:24:31;100638.34;;;18.96;58.03
55610;BME280;41486;52.502;13.486;2022-11-15T12:27:12;100625.97;;;19.03;55.83
55610;BME280;41486;52.502;13.486;2022-11-15T12:29:54;100630.72;;;20.55;51.29
55610;BME280;41486;52.502;13.486;2022-11-15T12:32:26;100627.22;;;18.75;54.69
55610;BME280;41486;52.502;13.486;2022-11-15T12:35:06;100630.97;;;18.50;57.00
55610;BME280;41486;52.502;13.486;2022-11-15T12:37:49;100626.16;;;18.45;57.46
55610;BME280;41486;52.502;13.486;2022-11-15T12:40:33;100626.28;;;18.52;57.05
55610;BME280;41486;52.502;13.486;2022-11-15T12:46:11;100619.13;;;18.60;55.45
55610;BME280;41486;52.502;13.486;2022-11-15T12:48:54;100611.50;;;19.60;53.50
55610;BME280;41486;52.502;13.486;2022-11-15T12:54:59;100603.81;;;21.38;48.38
55610;BME280;41486;52.502;13.486;2022-11-15T12:57:39;100605.91;;;21.58;46.91
55610;BME280;41486;52.502;13.486;2022-11-15T13:03:25;100596.06;;;18.03;57.25
55610;BME280;41486;52.502;13.486;2022-11-15T13:06:06;100588.19;;;17.44;59.73
55610;BME280;41486;52.502;13.486;2022-11-15T13:08:49;100587.41;;;17.76;58.04
55610;BME280;41486;52.502;13.486;2022-11-15T13:11:43;100593.19;;;16.61;63.13
55610;BME280;41486;52.502;13.486;2022-11-15T13:14:43;100582.25;;;15.85;68.29
55610;BME280;41486;52.502;13.486;2022-11-15T13:20:26;100579.00;;;15.09;70.88
55610;BME280;41486;52.502;13.486;2022-11-15T13:23:01;100584.44;;;15.90;68.44
55610;BME280;41486;52.502;13.486;2022-11-15T13:25:52;100576.47;;;15.54;68.76
55610;BME280;41486;52.502;13.486;2022-11-15T13:28:29;100573.50;;;14.93;72.79
55610;BME280;41486;52.502;13.486;2022-11-15T13:31:13;100567.03;;;14.77;73.65
55610;BME280;41486;52.502;13.486;2022-11-15T13:33:44;100569.28;;;14.72;74.12
55610;BME280;41486;52.502;13.486;2022-11-15T13:36:17;100567.47;;;15.01;72.58
55610;BME280;41486;52.502;13.486;2022-11-15T13:38:55;100565.75;;;15.09;72.79
55610;BME280;41486;52.502;13.486;2022-11-15T13:41:26;100559.97;;;14.68;75.15
55610;BME280;41486;52.502;13.486;2022-11-15T13:43:57;100563.50;;;14.49;76.43
55610;BME280;41486;52.502;13.486;2022-11-15T13:46:27;100556.31;;;14.31;76.94
55610;BME280;41486;52.502;13.486;2022-11-15T13:48:57;100571.94;;;14.15;78.26
55610;BME280;41486;52.502;13.486;2022-11-15T13:51:33;100566.41;;;13.79;81.01
55610;BME280;41486;52.502;13.486;2022-11-15T13:54:08;100564.69;;;14.07;79.15
55610;BME280;41486;52.502;13.486;2022-11-15T13:56:42;100561.09;;;14.08;78.92
55610;BME280;41486;52.502;13.486;2022-11-15T13:59:17;100560.81;;;13.92;79.49
55610;BME280;41486;52.502;13.486;2022-11-15T14:01:49;100555.84;;;13.69;80.38
55610;BME280;41486;52.502;13.486;2022-11-15T14:04:20;100553.72;;;13.82;80.28
55610;BME280;41486;52.502;13.486;2022-11-15T14:06:53;100556.53;;;13.41;82.74
55610;BME280;41486;52.502;13.486;2022-11-15T14:09:34;100556.25;;;13.54;81.76
55610;BME280;41486;52.502;13.486;2022-11-15T14:12:22;100556.34;;;13.23;84.05
55610;BME280;41486;52.502;13.486;2022-11-15T14:14:51;100567.06;;;13.32;83.13
55610;BME280;41486;52.502;13.486;2022-11-15T14:17:21;100565.41;;;13.31;83.64
55610;BME280;41486;52.502;13.486;2022-11-15T14:20:00;100568.66;;;12.93;85.60
55610;BME280;41486;52.502;13.486;2022-11-15T14:22:30;100576.16;;;12.98;86.59
55610;BME280;41486;52.502;13.486;2022-11-15T14:25:13;100582.34;;;12.77;88.12
55610;BME280;41486;52.502;13.486;2022-11-15T14:27:43;100572.63;;;12.78;88.55
55610;BME280;41486;52.502;13.486;2022-11-15T14:30:26;100568.28;;;12.67;89.52
55610;BME280;41486;52.502;13.486;2022-11-15T14:32:58;100564.06;;;12.55;90.72